Airfield :







YOU CAN JOIN US ON...

 
LOGIN :

Register | Disclaimer

   EN    FR    IT 

 









Legend :    VFR   Marginal VFR   IFR   Intensive IFR   Very Intensive IFR
Visi :
Ceiling :
>= 8 km
>= 3000ft
5 to 8 km
1000 to 3000 ft
1500m to 5 km
500 to 1000 ft
800 to 1500m
200 to 500 ft
< 800m
< 200 ft
Symbols :   Thunderstorms  Fog  Heavy snow  Heavy precipitations  Wind > 20 kt






- Airport Elevation : 1009 ft
- IATA code : ORH


KORH - Worcester Regional

CURRENT METAR :
  • 161854Z 26007KT 10SM OVC070 02/M07 A3002 RMK AO2 SLP180 T00171067

EXPIRED METARs :
  • 161754Z 24009KT 10SM OVC070 01/M07 A3004 RMK AO2 SLP186 T00111072 10011 21039 58021
  • 161654Z 24008KT 10SM OVC065 01/M07 A3006 RMK AO2 SLP194 T00111067

TAF KORH
Valid from the 16 at 18:00 until the 17 at 18:00 UTC


161737Z 1618/1718 24008KT P6SM BKN070
FM162000 00000KT P6SM BKN070
FM170200 00000KT P6SM SCT090
FM170900 26007KT P6SM SKC
FM171400 30011KT P6SM SKC



MET'MAP, your aeronautical weather chart ! - Copyright ORBIFLY December 2007 - Disclaimer

ORBIFLY MET'MAP TEAM :

Programming & Development : Alexandra Zaïnal
Concept & original design : Baudouin d'Aumeries
Assistance for programming : Marc-Olivier Méhu
Technical & hardware support : Manuel Goepfert

Contact : metmap@orbifly.com




SOURCES & CREDITS :

   NOAA